Time,TemperatureF,DewpointF,PressureIn,WindDirection,WindDirectionDegrees,WindSpeedMPH,WindSpeedGustMPH,Humidity,HourlyPrecipIn,Conditions,Clouds,dailyrainin,SoftwareType,DateUTC
2013-03-31 00:04:00,48.5,43.6,29.95,WNW,286,6.0,7.0,83,0.00,,SKC,0.00,VWS V14.01,2013-03-31 05:04:00,
2013-03-31 00:09:00,48.6,43.7,29.95,West,271,4.0,6.0,83,0.00,,SKC,0.00,VWS V14.01,2013-03-31 05:09:00,
2013-03-31 00:14:00,48.6,43.7,29.95,West,279,4.0,7.0,83,0.00,,SKC,0.00,VWS V14.01,2013-03-31 05:14:00,
2013-03-31 00:19:00,48.7,43.8,29.95,WNW,286,6.0,6.0,83,0.00,,SKC,0.00,VWS V14.01,2013-03-31 05:19:00,
2013-03-31 00:24:00,48.8,43.9,29.94,WNW,290,6.0,6.0,83,0.00,,SKC,0.00,VWS V14.01,2013-03-31 05:24:00,
2013-03-31 00:29:00,48.7,43.5,29.94,WNW,290,4.0,5.0,82,0.00,,SKC,0.00,VWS V14.01,2013-03-31 05:29:00,
2013-03-31 00:34:00,48.6,43.4,29.94,WNW,288,2.0,4.0,82,0.00,,SKC,0.00,VWS V14.01,2013-03-31 05:34:00,
2013-03-31 00:39:00,48.6,43.7,29.94,WNW,288,3.0,4.0,83,0.00,,SKC,0.00,VWS V14.01,2013-03-31 05:39:00,
2013-03-31 00:44:00,48.7,43.8,29.94,WNW,288,2.0,5.0,83,0.00,,SKC,0.00,VWS V14.01,2013-03-31 05:44:00,
2013-03-31 00:49:00,48.6,43.7,29.94,WNW,288,2.0,3.0,83,0.00,,SKC,0.00,VWS V14.01,2013-03-31 05:49:00,
2013-03-31 00:54:00,48.7,43.8,29.94,WNW,288,5.0,5.0,83,0.00,,SKC,0.00,VWS V14.01,2013-03-31 05:54:00,
2013-03-31 00:59:00,48.7,43.8,29.94,WNW,286,4.0,5.0,83,0.00,,SKC,0.00,VWS V14.01,2013-03-31 05:59:00,
2013-03-31 01:04:00,48.7,43.8,29.94,WNW,286,3.0,4.0,83,0.00,,SKC,0.00,VWS V14.01,2013-03-31 06:04:00,
2013-03-31 01:09:00,48.6,43.7,29.94,WNW,286,3.0,4.0,83,0.00,,SKC,0.00,VWS V14.01,2013-03-31 06:09:00,
2013-03-31 01:14:00,48.5,43.6,29.94,WNW,285,3.0,5.0,83,0.00,,SKC,0.00,VWS V14.01,2013-03-31 06:14:00,
2013-03-31 01:19:00,48.5,43.6,29.94,WNW,285,3.0,5.0,83,0.00,,SKC,0.00,VWS V14.01,2013-03-31 06:19:00,
2013-03-31 01:24:00,48.5,43.6,29.94,WNW,285,3.0,5.0,83,0.00,,SKC,0.00,VWS V14.01,2013-03-31 06:24:00,
2013-03-31 01:29:00,48.5,43.6,29.94,WNW,285,3.0,5.0,83,0.00,,SKC,0.00,VWS V14.01,2013-03-31 06:29:00,
2013-03-31 01:34:00,48.6,43.7,29.94,WNW,285,4.0,5.0,83,0.00,,SKC,0.00,VWS V14.01,2013-03-31 06:34:00,
2013-03-31 01:39:00,48.5,43.6,29.94,WNW,285,4.0,4.0,83,0.00,,SKC,0.00,VWS V14.01,2013-03-31 06:39:00,
2013-03-31 01:44:00,48.5,43.6,29.94,WNW,285,2.0,4.0,83,0.00,,SKC,0.00,VWS V14.01,2013-03-31 06:44:00,
2013-03-31 01:49:00,48.3,43.4,29.94,WNW,285,3.0,4.0,83,0.00,,SKC,0.00,VWS V14.01,2013-03-31 06:49:00,
2013-03-31 01:55:00,48.2,43.3,29.94,WNW,285,2.0,2.0,83,0.00,,SKC,0.00,VWS V14.01,2013-03-31 06:55:00,
2013-03-31 02:00:00,48.1,43.2,29.94,WNW,285,3.0,4.0,83,0.00,,SKC,0.00,VWS V14.01,2013-03-31 07:00:00,
2013-03-31 02:05:00,48.1,43.2,29.94,WNW,285,3.0,3.0,83,0.00,,SKC,0.00,VWS V14.01,2013-03-31 07:05:00,
2013-03-31 02:10:00,48.1,43.2,29.94,WNW,285,2.0,3.0,83,0.00,,SKC,0.00,VWS V14.01,2013-03-31 07:10:00,
2013-03-31 02:15:00,48.1,43.2,29.94,WNW,285,2.0,4.0,83,0.00,,SKC,0.00,VWS V14.01,2013-03-31 07:15:00,
2013-03-31 02:20:00,47.9,43.0,29.94,WNW,285,2.0,3.0,83,0.00,,SKC,0.00,VWS V14.01,2013-03-31 07:20:00,
2013-03-31 02:25:00,47.7,42.5,29.94,WNW,285,2.0,3.0,82,0.00,,SKC,0.00,VWS V14.01,2013-03-31 07:25:00,
2013-03-31 02:30:00,47.5,42.6,29.94,WNW,285,3.0,4.0,83,0.00,,SKC,0.00,VWS V14.01,2013-03-31 07:30:00,
2013-03-31 02:35:00,47.4,42.5,29.94,WNW,285,2.0,3.0,83,0.00,,SKC,0.00,VWS V14.01,2013-03-31 07:35:00,
2013-03-31 02:40:00,47.4,42.5,29.94,WNW,285,2.0,3.0,83,0.00,,SKC,0.00,VWS V14.01,2013-03-31 07:40:00,
2013-03-31 02:45:00,47.3,42.1,29.94,WNW,285,2.0,3.0,82,0.00,,SKC,0.00,VWS V14.01,2013-03-31 07:45:00,
2013-03-31 02:50:00,47.2,42.0,29.94,WNW,285,3.0,3.0,82,0.00,,SKC,0.00,VWS V14.01,2013-03-31 07:50:00,
2013-03-31 02:55:00,47.0,41.8,29.94,WNW,285,0.0,2.0,82,0.00,,SKC,0.00,VWS V14.01,2013-03-31 07:55:00,
2013-03-31 03:00:00,46.7,41.2,29.94,WNW,285,0.0,1.0,81,0.00,,SKC,0.00,VWS V14.01,2013-03-31 08:00:00,
2013-03-31 03:05:00,46.3,41.1,29.94,WNW,285,0.0,0.0,82,0.00,,SKC,0.00,VWS V14.01,2013-03-31 08:05:00,
2013-03-31 03:11:00,45.9,40.7,29.94,WNW,285,0.0,0.0,82,0.00,,SKC,0.00,VWS V14.01,2013-03-31 08:11:00,
2013-03-31 03:16:00,45.6,40.4,29.94,WNW,285,0.0,0.0,82,0.00,,SKC,0.00,VWS V14.01,2013-03-31 08:16:00,
2013-03-31 03:21:00,45.3,40.1,29.93,WNW,285,0.0,0.0,82,0.00,,SKC,0.00,VWS V14.01,2013-03-31 08:21:00,
2013-03-31 03:26:00,45.1,40.2,29.93,WNW,285,0.0,0.0,83,0.00,,SKC,0.00,VWS V14.01,2013-03-31 08:26:00,
2013-03-31 03:31:00,45.1,40.6,29.93,WNW,285,1.0,2.0,84,0.00,,SKC,0.00,VWS V14.01,2013-03-31 08:31:00,
2013-03-31 03:36:00,44.6,40.1,29.93,WNW,285,0.0,0.0,84,0.00,,SKC,0.00,VWS V14.01,2013-03-31 08:36:00,
2013-03-31 03:41:00,44.2,39.7,29.93,WNW,285,0.0,0.0,84,0.00,,SKC,0.00,VWS V14.01,2013-03-31 08:41:00,
2013-03-31 03:47:00,43.8,39.6,29.93,WNW,285,0.0,0.0,85,0.00,,SKC,0.00,VWS V14.01,2013-03-31 08:47:00,
2013-03-31 03:52:00,43.6,39.4,29.93,WNW,285,0.0,0.0,85,0.00,,SKC,0.00,VWS V14.01,2013-03-31 08:52:00,
2013-03-31 03:57:00,43.4,39.2,29.93,WNW,285,0.0,1.0,85,0.00,,SKC,0.00,VWS V14.01,2013-03-31 08:57:00,
2013-03-31 04:02:00,43.1,38.9,29.92,WNW,285,0.0,0.0,85,0.00,,SKC,0.00,VWS V14.01,2013-03-31 09:02:00,
2013-03-31 04:07:00,42.8,38.9,29.92,WNW,285,0.0,0.0,86,0.00,,SKC,0.00,VWS V14.01,2013-03-31 09:07:00,
2013-03-31 04:12:00,42.8,38.9,29.92,WNW,285,0.0,0.0,86,0.00,,SKC,0.00,VWS V14.01,2013-03-31 09:12:00,
2013-03-31 04:17:00,42.7,38.8,29.92,WNW,285,0.0,0.0,86,0.00,,SKC,0.00,VWS V14.01,2013-03-31 09:17:00,
2013-03-31 04:22:00,42.6,39.0,29.92,WNW,285,0.0,0.0,87,0.00,,SKC,0.00,VWS V14.01,2013-03-31 09:22:00,
2013-03-31 04:27:00,42.7,39.1,29.92,WNW,285,0.0,1.0,87,0.00,,SKC,0.00,VWS V14.01,2013-03-31 09:27:00,
2013-03-31 04:32:00,42.7,39.1,29.93,WNW,285,1.0,2.0,87,0.00,,SKC,0.00,VWS V14.01,2013-03-31 09:32:00,
2013-03-31 04:37:00,42.7,39.4,29.92,WNW,285,1.0,2.0,88,0.00,,SKC,0.00,VWS V14.01,2013-03-31 09:37:00,
2013-03-31 04:42:00,42.8,39.5,29.92,WNW,285,1.0,1.0,88,0.00,,SKC,0.00,VWS V14.01,2013-03-31 09:42:00,
2013-03-31 04:47:00,42.8,39.5,29.92,WNW,285,2.0,3.0,88,0.00,,SKC,0.00,VWS V14.01,2013-03-31 09:47:00,
2013-03-31 04:52:00,42.7,39.4,29.92,WNW,285,2.0,3.0,88,0.00,,SKC,0.00,VWS V14.01,2013-03-31 09:52:00,
2013-03-31 04:58:00,42.4,39.1,29.92,WNW,285,0.0,2.0,88,0.00,,SKC,0.00,VWS V14.01,2013-03-31 09:58:00,
2013-03-31 05:03:00,42.3,39.0,29.92,WNW,285,0.0,0.0,88,0.00,,SKC,0.00,VWS V14.01,2013-03-31 10:03:00,
2013-03-31 05:08:00,42.0,38.7,29.92,WNW,285,0.0,0.0,88,0.00,,SKC,0.00,VWS V14.01,2013-03-31 10:08:00,
2013-03-31 05:13:00,41.6,38.0,29.93,WNW,285,1.0,2.0,87,0.00,,SKC,0.00,VWS V14.01,2013-03-31 10:13:00,
2013-03-31 05:18:00,41.2,37.9,29.93,WNW,285,0.0,0.0,88,0.00,,SKC,0.00,VWS V14.01,2013-03-31 10:18:00,
2013-03-31 05:23:00,40.9,37.6,29.93,WNW,285,0.0,0.0,88,0.00,,SKC,0.00,VWS V14.01,2013-03-31 10:23:00,
2013-03-31 05:28:00,40.8,37.5,29.94,WNW,302,5.0,6.0,88,0.00,,SKC,0.00,VWS V14.01,2013-03-31 10:28:00,
2013-03-31 05:33:00,41.0,39.4,29.93,NW,311,1.0,2.0,94,0.00,,SKC,0.00,VWS V14.01,2013-03-31 10:33:00,
2013-03-31 05:38:00,41.0,38.0,29.94,NW,311,0.0,1.0,89,0.00,,SKC,0.00,VWS V14.01,2013-03-31 10:38:00,
2013-03-31 05:43:00,40.4,37.1,29.93,NW,311,0.0,0.0,88,0.00,,SKC,0.00,VWS V14.01,2013-03-31 10:43:00,
2013-03-31 05:48:00,39.8,36.5,29.94,NW,311,0.0,0.0,88,0.00,,SKC,0.00,VWS V14.01,2013-03-31 10:48:00,
2013-03-31 05:53:00,39.5,36.2,29.93,NW,311,0.0,0.0,88,0.00,,SKC,0.00,VWS V14.01,2013-03-31 10:53:00,
2013-03-31 05:59:00,39.3,36.0,29.94,NW,311,3.0,3.0,88,0.00,,SKC,0.00,VWS V14.01,2013-03-31 10:59:00,
2013-03-31 06:04:00,39.2,36.2,29.94,NW,311,5.0,5.0,89,0.00,,SKC,0.00,VWS V14.01,2013-03-31 11:04:00,
2013-03-31 06:09:00,39.3,36.3,29.94,NW,311,4.0,5.0,89,0.00,,SKC,0.00,VWS V14.01,2013-03-31 11:09:00,
2013-03-31 06:14:00,39.5,36.5,29.94,NW,314,4.0,7.0,89,0.00,,SKC,0.00,VWS V14.01,2013-03-31 11:14:00,
2013-03-31 06:19:00,39.7,37.0,29.94,NW,315,3.0,5.0,90,0.00,,SKC,0.00,VWS V14.01,2013-03-31 11:19:00,
2013-03-31 06:24:00,39.9,37.2,29.94,NW,315,4.0,7.0,90,0.00,,SKC,0.00,VWS V14.01,2013-03-31 11:24:00,
2013-03-31 06:29:00,40.1,37.4,29.94,NW,313,5.0,5.0,90,0.00,,SKC,0.00,VWS V14.01,2013-03-31 11:29:00,
2013-03-31 06:34:00,40.2,37.5,29.94,NW,313,3.0,4.0,90,0.00,,SKC,0.00,VWS V14.01,2013-03-31 11:34:00,
2013-03-31 06:39:00,40.1,37.4,29.94,NW,313,5.0,6.0,90,0.00,,SKC,0.00,VWS V14.01,2013-03-31 11:39:00,
2013-03-31 06:44:00,40.0,37.3,29.95,NW,313,5.0,5.0,90,0.00,,SKC,0.00,VWS V14.01,2013-03-31 11:44:00,
2013-03-31 06:49:00,39.9,37.2,29.94,NW,313,4.0,5.0,90,0.00,,SKC,0.00,VWS V14.01,2013-03-31 11:49:00,
2013-03-31 06:54:00,39.7,37.0,29.95,NW,311,5.0,6.0,90,0.00,,SKC,0.00,VWS V14.01,2013-03-31 11:54:00,
2013-03-31 07:00:00,39.7,37.0,29.95,NW,311,5.0,7.0,90,0.00,,SKC,0.00,VWS V14.01,2013-03-31 12:00:00,
2013-03-31 07:05:00,39.7,37.0,29.95,NW,309,6.0,6.0,90,0.00,,SKC,0.00,VWS V14.01,2013-03-31 12:05:00,
2013-03-31 07:10:00,39.6,37.2,29.95,NW,305,4.0,7.0,91,0.00,,SKC,0.00,VWS V14.01,2013-03-31 12:10:00,
2013-03-31 07:15:00,39.5,37.1,29.96,NW,314,5.0,11.0,91,0.00,,SKC,0.00,VWS V14.01,2013-03-31 12:15:00,
2013-03-31 07:20:00,39.5,37.1,29.96,NW,321,5.0,7.0,91,0.00,,SKC,0.00,VWS V14.01,2013-03-31 12:20:00,
2013-03-31 07:25:00,39.4,37.0,29.96,NW,325,4.0,5.0,91,0.00,,SKC,0.00,VWS V14.01,2013-03-31 12:25:00,
2013-03-31 07:30:00,39.2,36.8,29.97,NW,315,4.0,9.0,91,0.00,,SKC,0.00,VWS V14.01,2013-03-31 12:30:00,
2013-03-31 07:35:00,39.1,36.7,29.97,NW,311,4.0,6.0,91,0.00,,SKC,0.00,VWS V14.01,2013-03-31 12:35:00,
2013-03-31 07:40:00,39.0,36.6,29.97,NW,310,5.0,5.0,91,0.00,,SKC,0.00,VWS V14.01,2013-03-31 12:40:00,
2013-03-31 07:45:00,38.8,36.4,29.98,NW,306,3.0,5.0,91,0.00,,SKC,0.00,VWS V14.01,2013-03-31 12:45:00,
2013-03-31 07:50:00,38.8,36.4,29.98,NW,306,4.0,6.0,91,0.00,,SKC,0.00,VWS V14.01,2013-03-31 12:50:00,
2013-03-31 07:55:00,38.8,36.4,29.97,NW,309,5.0,5.0,91,0.00,,SKC,0.00,VWS V14.01,2013-03-31 12:55:00,
2013-03-31 08:00:00,38.8,36.4,29.97,NW,310,4.0,6.0,91,0.00,,SKC,0.00,VWS V14.01,2013-03-31 13:00:00,
2013-03-31 08:05:00,39.0,36.6,29.98,NW,308,3.0,6.0,91,0.00,,SKC,0.00,VWS V14.01,2013-03-31 13:05:00,
2013-03-31 08:10:00,39.3,37.2,29.98,NW,305,2.0,5.0,92,0.00,,SKC,0.00,VWS V14.01,2013-03-31 13:10:00,
2013-03-31 08:15:00,39.5,37.4,29.98,NW,305,2.0,5.0,92,0.00,,SKC,0.00,VWS V14.01,2013-03-31 13:15:00,
2013-03-31 08:20:00,39.8,37.7,29.98,WNW,298,3.0,7.0,92,0.00,,SKC,0.00,VWS V14.01,2013-03-31 13:20:00,
2013-03-31 08:25:00,40.0,37.9,29.98,NW,304,7.0,10.0,92,0.00,,SKC,0.00,VWS V14.01,2013-03-31 13:25:00,
2013-03-31 08:30:00,40.3,38.2,29.98,NW,304,4.0,10.0,92,0.00,,SKC,0.00,VWS V14.01,2013-03-31 13:30:00,
2013-03-31 08:35:00,40.6,38.5,29.98,NW,307,9.0,10.0,92,0.00,,SKC,0.00,VWS V14.01,2013-03-31 13:35:00,
2013-03-31 08:40:00,40.9,38.8,29.98,NW,305,7.0,11.0,92,0.00,,SKC,0.00,VWS V14.01,2013-03-31 13:40:00,
2013-03-31 08:45:00,41.1,39.0,29.98,NW,312,9.0,10.0,92,0.00,,SKC,0.00,VWS V14.01,2013-03-31 13:45:00,
2013-03-31 08:51:00,41.5,39.3,29.98,NW,309,7.0,11.0,92,0.00,,SKC,0.00,VWS V14.01,2013-03-31 13:51:00,
2013-03-31 08:56:00,41.9,39.8,29.98,WNW,302,11.0,11.0,92,0.00,,SKC,0.00,VWS V14.01,2013-03-31 13:56:00,
2013-03-31 09:01:00,42.4,40.2,29.99,NW,308,7.0,8.0,92,0.00,,SKC,0.00,VWS V14.01,2013-03-31 14:01:00,
2013-03-31 09:06:00,42.7,40.5,29.99,WNW,302,6.0,9.0,92,0.00,,SKC,0.00,VWS V14.01,2013-03-31 14:06:00,
2013-03-31 09:12:00,43.1,40.7,29.99,NW,323,9.0,11.0,91,0.00,,SKC,0.00,VWS V14.01,2013-03-31 14:12:00,
2013-03-31 09:17:00,43.4,41.0,29.99,WNW,291,12.0,13.0,91,0.00,,SKC,0.00,VWS V14.01,2013-03-31 14:17:00,
2013-03-31 09:22:00,43.7,41.0,29.98,NNW,327,11.0,11.0,90,0.00,,SKC,0.00,VWS V14.01,2013-03-31 14:22:00,
2013-03-31 09:28:00,44.0,41.0,29.98,NW,304,11.0,12.0,89,0.00,,SKC,0.00,VWS V14.01,2013-03-31 14:28:00,
2013-03-31 09:33:00,44.4,41.1,29.98,NW,317,8.0,8.0,88,0.00,,SKC,0.00,VWS V14.01,2013-03-31 14:33:00,
2013-03-31 09:38:00,44.9,41.3,29.98,NW,314,9.0,12.0,87,0.00,,SKC,0.00,VWS V14.01,2013-03-31 14:38:00,
2013-03-31 09:43:00,45.4,41.2,29.99,NW,309,11.0,12.0,85,0.00,,SKC,0.00,VWS V14.01,2013-03-31 14:43:00,
2013-03-31 09:48:00,45.8,40.9,29.98,NW,315,14.0,14.0,83,0.00,,SKC,0.00,VWS V14.01,2013-03-31 14:48:00,
2013-03-31 09:53:00,46.2,41.3,29.98,NNW,336,10.0,13.0,83,0.00,,SKC,0.00,VWS V14.01,2013-03-31 14:53:00,
2013-03-31 09:58:00,46.6,41.4,29.98,NW,306,13.0,16.0,82,0.00,,SKC,0.00,VWS V14.01,2013-03-31 14:58:00,
2013-03-31 10:03:00,46.8,40.6,29.98,WNW,302,9.0,14.0,79,0.00,,SKC,0.00,VWS V14.01,2013-03-31 15:03:00,
2013-03-31 10:08:00,47.2,40.4,29.98,NW,316,13.0,18.0,77,0.00,,SKC,0.00,VWS V14.01,2013-03-31 15:08:00,
2013-03-31 10:13:00,47.3,40.1,29.98,NW,309,14.0,14.0,76,0.00,,SKC,0.00,VWS V14.01,2013-03-31 15:13:00,
2013-03-31 10:18:00,47.6,40.4,29.98,WNW,300,15.0,17.0,76,0.00,,SKC,0.00,VWS V14.01,2013-03-31 15:18:00,
2013-03-31 10:23:00,47.8,39.9,29.98,NW,304,12.0,19.0,74,0.00,,SKC,0.00,VWS V14.01,2013-03-31 15:23:00,
2013-03-31 10:28:00,47.8,39.2,29.99,NNW,327,13.0,16.0,72,0.00,,SKC,0.00,VWS V14.01,2013-03-31 15:28:00,
2013-03-31 10:34:00,48.1,40.2,29.99,WNW,289,14.0,19.0,74,0.00,,SKC,0.00,VWS V14.01,2013-03-31 15:34:00,
2013-03-31 10:39:00,48.2,40.0,29.99,NNW,335,9.0,10.0,73,0.00,,SKC,0.00,VWS V14.01,2013-03-31 15:39:00,
2013-03-31 10:44:00,48.5,40.6,29.99,NW,315,9.0,15.0,74,0.00,,SKC,0.00,VWS V14.01,2013-03-31 15:44:00,
2013-03-31 10:49:00,48.9,40.6,29.99,NW,315,15.0,17.0,73,0.00,,SKC,0.00,VWS V14.01,2013-03-31 15:49:00,
2013-03-31 10:54:00,49.0,40.4,29.99,NW,317,6.0,13.0,72,0.00,,SKC,0.00,VWS V14.01,2013-03-31 15:54:00,
2013-03-31 10:59:00,49.3,39.9,29.99,NW,313,9.0,16.0,70,0.00,,SKC,0.00,VWS V14.01,2013-03-31 15:59:00,
2013-03-31 11:04:00,49.8,39.7,29.99,WNW,301,13.0,17.0,68,0.00,,SKC,0.00,VWS V14.01,2013-03-31 16:04:00,
2013-03-31 11:09:00,49.8,38.1,29.99,NW,319,11.0,18.0,64,0.00,,SKC,0.00,VWS V14.01,2013-03-31 16:09:00,
2013-03-31 11:14:00,50.1,38.0,29.99,NNW,338,14.0,17.0,63,0.00,,SKC,0.00,VWS V14.01,2013-03-31 16:14:00,
2013-03-31 11:19:00,50.6,38.9,29.99,NW,318,13.0,17.0,64,0.00,,SKC,0.00,VWS V14.01,2013-03-31 16:19:00,
2013-03-31 11:24:00,50.8,37.8,29.99,NW,309,11.0,15.0,61,0.00,,SKC,0.00,VWS V14.01,2013-03-31 16:24:00,
2013-03-31 11:29:00,51.0,37.6,29.99,NW,311,10.0,19.0,60,0.00,,SKC,0.00,VWS V14.01,2013-03-31 16:29:00,
2013-03-31 11:35:00,51.1,36.8,29.99,NW,306,14.0,16.0,58,0.00,,SKC,0.00,VWS V14.01,2013-03-31 16:35:00,
2013-03-31 11:40:00,51.3,37.9,29.99,NNW,344,14.0,15.0,60,0.00,,SKC,0.00,VWS V14.01,2013-03-31 16:40:00,
2013-03-31 11:45:00,51.7,38.7,29.99,NNW,340,14.0,17.0,61,0.00,,SKC,0.00,VWS V14.01,2013-03-31 16:45:00,
2013-03-31 11:50:00,51.9,38.0,29.99,NW,317,9.0,12.0,59,0.00,,SKC,0.00,VWS V14.01,2013-03-31 16:50:00,
2013-03-31 11:55:00,51.9,35.8,29.99,NW,317,16.0,18.0,54,0.00,,SKC,0.00,VWS V14.01,2013-03-31 16:55:00,
2013-03-31 12:00:00,51.9,36.7,30.00,WNW,296,11.0,18.0,56,0.00,,SKC,0.00,VWS V14.01,2013-03-31 17:00:00,
2013-03-31 12:05:00,52.2,35.6,30.00,NW,304,15.0,16.0,53,0.00,,SKC,0.00,VWS V14.01,2013-03-31 17:05:00,
2013-03-31 12:10:00,52.0,35.4,29.99,NW,315,16.0,16.0,53,0.00,,SKC,0.00,VWS V14.01,2013-03-31 17:10:00,
2013-03-31 12:15:00,52.3,35.7,30.00,WNW,302,16.0,20.0,53,0.00,,SKC,0.00,VWS V14.01,2013-03-31 17:15:00,
2013-03-31 12:20:00,52.3,36.2,30.00,NW,306,14.0,17.0,54,0.00,,SKC,0.00,VWS V14.01,2013-03-31 17:20:00,
2013-03-31 12:25:00,52.4,35.3,29.99,WNW,298,12.0,17.0,52,0.00,,SKC,0.00,VWS V14.01,2013-03-31 17:25:00,
2013-03-31 12:30:00,52.5,36.8,29.99,NW,310,11.0,15.0,55,0.00,,SKC,0.00,VWS V14.01,2013-03-31 17:30:00,
2013-03-31 12:35:00,52.8,36.6,29.99,NW,315,17.0,17.0,54,0.00,,SKC,0.00,VWS V14.01,2013-03-31 17:35:00,
2013-03-31 12:40:00,53.2,35.1,30.00,NNW,333,12.0,19.0,50,0.00,,SKC,0.00,VWS V14.01,2013-03-31 17:40:00,
2013-03-31 12:45:00,53.1,35.0,29.98,NW,325,17.0,17.0,50,0.00,,SKC,0.00,VWS V14.01,2013-03-31 17:45:00,
2013-03-31 12:50:00,53.5,36.3,29.99,NW,325,13.0,17.0,52,0.00,,SKC,0.00,VWS V14.01,2013-03-31 17:50:00,
2013-03-31 12:55:00,54.0,34.8,29.99,WNW,290,13.0,18.0,48,0.00,,SKC,0.00,VWS V14.01,2013-03-31 17:55:00,
2013-03-31 13:00:00,54.2,35.0,29.99,NNW,329,11.0,16.0,48,0.00,,SKC,0.00,VWS V14.01,2013-03-31 18:00:00,
2013-03-31 13:05:00,54.4,34.1,29.99,NW,321,18.0,20.0,46,0.00,,SKC,0.00,VWS V14.01,2013-03-31 18:05:00,
2013-03-31 13:10:00,54.4,34.1,29.98,WNW,298,13.0,17.0,46,0.00,,SKC,0.00,VWS V14.01,2013-03-31 18:10:00,
2013-03-31 13:15:00,54.4,33.5,29.99,WNW,292,12.0,15.0,45,0.00,,SKC,0.00,VWS V14.01,2013-03-31 18:15:00,
2013-03-31 13:20:00,54.6,33.7,29.98,NNW,344,13.0,16.0,45,0.00,,SKC,0.00,VWS V14.01,2013-03-31 18:20:00,
2013-03-31 13:26:00,54.8,33.3,29.98,NW,304,19.0,19.0,44,0.00,,SKC,0.00,VWS V14.01,2013-03-31 18:26:00,
2013-03-31 13:31:00,54.9,32.8,29.98,NW,304,13.0,18.0,43,0.00,,SKC,0.00,VWS V14.01,2013-03-31 18:31:00,
2013-03-31 13:36:00,54.7,32.7,29.99,NW,326,11.0,17.0,43,0.00,,SKC,0.00,VWS V14.01,2013-03-31 18:36:00,
2013-03-31 13:41:00,55.0,32.3,29.99,NW,307,12.0,18.0,42,0.00,,SKC,0.00,VWS V14.01,2013-03-31 18:41:00,
2013-03-31 13:46:00,55.1,33.0,29.99,NNW,328,9.0,18.0,43,0.00,,SKC,0.00,VWS V14.01,2013-03-31 18:46:00,
2013-03-31 13:51:00,55.5,32.8,29.99,NNW,329,15.0,18.0,42,0.00,,SKC,0.00,VWS V14.01,2013-03-31 18:51:00,
2013-03-31 13:56:00,55.7,32.4,29.99,NW,307,12.0,19.0,41,0.00,,SKC,0.00,VWS V14.01,2013-03-31 18:56:00,
2013-03-31 14:02:00,55.4,30.9,29.99,NNW,333,13.0,22.0,39,0.00,,SKC,0.00,VWS V14.01,2013-03-31 19:02:00,
2013-03-31 14:07:00,55.5,31.6,29.99,NW,315,15.0,18.0,40,0.00,,SKC,0.00,VWS V14.01,2013-03-31 19:07:00,
2013-03-31 14:12:00,55.7,32.4,29.99,NNW,332,16.0,16.0,41,0.00,,SKC,0.00,VWS V14.01,2013-03-31 19:12:00,
2013-03-31 14:17:00,55.8,31.9,29.98,NNW,336,17.0,17.0,40,0.00,,SKC,0.00,VWS V14.01,2013-03-31 19:17:00,
2013-03-31 14:22:00,55.9,32.0,29.98,WNW,300,15.0,16.0,40,0.00,,SKC,0.00,VWS V14.01,2013-03-31 19:22:00,
2013-03-31 14:27:00,55.9,32.6,29.98,NNW,327,13.0,14.0,41,0.00,,SKC,0.00,VWS V14.01,2013-03-31 19:27:00,
2013-03-31 14:32:00,56.2,31.0,29.98,NW,311,13.0,17.0,38,0.00,,SKC,0.00,VWS V14.01,2013-03-31 19:32:00,
2013-03-31 14:38:00,56.2,33.4,29.98,NW,325,15.0,15.0,42,0.00,,SKC,0.00,VWS V14.01,2013-03-31 19:38:00,
2013-03-31 14:43:00,56.1,31.5,29.97,NW,306,10.0,19.0,39,0.00,,SKC,0.00,VWS V14.01,2013-03-31 19:43:00,
2013-03-31 14:48:00,55.8,29.9,29.97,NW,309,18.0,18.0,37,0.00,,SKC,0.00,VWS V14.01,2013-03-31 19:48:00,
2013-03-31 14:53:00,55.8,30.6,29.97,NNW,331,19.0,20.0,38,0.00,,SKC,0.00,VWS V14.01,2013-03-31 19:53:00,
2013-03-31 14:58:00,55.9,30.7,29.97,WNW,294,6.0,16.0,38,0.00,,SKC,0.00,VWS V14.01,2013-03-31 19:58:00,
2013-03-31 15:04:00,56.0,30.1,29.97,NW,321,14.0,14.0,37,0.00,,SKC,0.00,VWS V14.01,2013-03-31 20:04:00,
2013-03-31 15:09:00,55.9,29.4,29.97,NW,312,12.0,14.0,36,0.00,,SKC,0.00,VWS V14.01,2013-03-31 20:09:00,
2013-03-31 15:14:00,56.1,29.5,29.97,WNW,298,15.0,15.0,36,0.00,,SKC,0.00,VWS V14.01,2013-03-31 20:14:00,
2013-03-31 15:19:00,56.3,31.0,29.96,NNW,329,11.0,12.0,38,0.00,,SKC,0.00,VWS V14.01,2013-03-31 20:19:00,
2013-03-31 15:24:00,56.5,29.9,29.96,NNW,336,9.0,14.0,36,0.00,,SKC,0.00,VWS V14.01,2013-03-31 20:24:00,
2013-03-31 15:29:00,56.7,30.1,29.96,NNW,332,10.0,15.0,36,0.00,,SKC,0.00,VWS V14.01,2013-03-31 20:29:00,
2013-03-31 15:34:00,57.1,31.1,29.96,WNW,302,11.0,15.0,37,0.00,,SKC,0.00,VWS V14.01,2013-03-31 20:34:00,
2013-03-31 15:39:00,57.1,31.1,29.95,NW,305,7.0,10.0,37,0.00,,SKC,0.00,VWS V14.01,2013-03-31 20:39:00,
2013-03-31 15:44:00,57.2,29.1,29.95,NNW,340,10.0,18.0,34,0.00,,SKC,0.00,VWS V14.01,2013-03-31 20:44:00,
2013-03-31 15:49:00,57.3,30.6,29.95,NW,319,13.0,13.0,36,0.00,,SKC,0.00,VWS V14.01,2013-03-31 20:49:00,
2013-03-31 15:54:00,57.5,30.1,29.95,NNW,342,15.0,15.0,35,0.00,,SKC,0.00,VWS V14.01,2013-03-31 20:54:00,
2013-03-31 15:59:00,57.4,30.0,29.95,NW,314,13.0,15.0,35,0.00,,SKC,0.00,VWS V14.01,2013-03-31 20:59:00,
2013-03-31 16:04:00,57.1,30.4,29.95,North,355,12.0,14.0,36,0.00,,SKC,0.00,VWS V14.01,2013-03-31 21:04:00,
2013-03-31 16:09:00,57.3,31.3,29.95,NNW,340,11.0,11.0,37,0.00,,SKC,0.00,VWS V14.01,2013-03-31 21:09:00,
2013-03-31 16:14:00,57.8,31.0,29.95,NNW,343,13.0,13.0,36,0.00,,SKC,0.00,VWS V14.01,2013-03-31 21:14:00,
2013-03-31 16:19:00,57.9,30.4,29.95,NW,322,6.0,12.0,35,0.00,,SKC,0.00,VWS V14.01,2013-03-31 21:19:00,
2013-03-31 16:24:00,58.0,30.5,29.95,NW,309,14.0,14.0,35,0.00,,SKC,0.00,VWS V14.01,2013-03-31 21:24:00,
2013-03-31 16:29:00,57.9,30.4,29.95,NW,324,11.0,11.0,35,0.00,,SKC,0.00,VWS V14.01,2013-03-31 21:29:00,
2013-03-31 16:34:00,57.8,31.0,29.95,NW,324,12.0,12.0,36,0.00,,SKC,0.00,VWS V14.01,2013-03-31 21:34:00,
2013-03-31 16:40:00,57.8,30.4,29.95,NNW,344,6.0,6.0,35,0.00,,SKC,0.00,VWS V14.01,2013-03-31 21:40:00,
2013-03-31 16:45:00,57.8,31.0,29.95,NNW,337,5.0,9.0,36,0.00,,SKC,0.00,VWS V14.01,2013-03-31 21:45:00,
2013-03-31 16:50:00,58.0,30.5,29.95,NNW,344,4.0,7.0,35,0.00,,SKC,0.00,VWS V14.01,2013-03-31 21:50:00,
2013-03-31 16:55:00,58.0,31.2,29.95,North,9,9.0,12.0,36,0.00,,SKC,0.00,VWS V14.01,2013-03-31 21:55:00,
2013-03-31 17:00:00,57.8,31.7,29.94,NW,317,6.0,9.0,37,0.00,,SKC,0.00,VWS V14.01,2013-03-31 22:00:00,
2013-03-31 17:05:00,57.8,32.4,29.94,NW,304,6.0,9.0,38,0.00,,SKC,0.00,VWS V14.01,2013-03-31 22:05:00,
2013-03-31 17:10:00,58.0,31.2,29.94,NNW,341,4.0,6.0,36,0.00,,SKC,0.00,VWS V14.01,2013-03-31 22:10:00,
2013-03-31 17:15:00,58.1,31.3,29.94,North,360,9.0,11.0,36,0.00,,SKC,0.00,VWS V14.01,2013-03-31 22:15:00,
2013-03-31 17:20:00,58.0,31.2,29.94,North,5,5.0,10.0,36,0.00,,SKC,0.00,VWS V14.01,2013-03-31 22:20:00,
2013-03-31 17:25:00,57.8,31.7,29.94,North,360,9.0,9.0,37,0.00,,SKC,0.00,VWS V14.01,2013-03-31 22:25:00,
2013-03-31 17:30:00,57.6,30.9,29.94,NW,317,6.0,9.0,36,0.00,,SKC,0.00,VWS V14.01,2013-03-31 22:30:00,
2013-03-31 17:36:00,57.3,30.6,29.94,North,5,3.0,7.0,36,0.00,,SKC,0.00,VWS V14.01,2013-03-31 22:36:00,
2013-03-31 17:41:00,56.7,30.1,29.94,NNE,18,4.0,6.0,36,0.00,,SKC,0.00,VWS V14.01,2013-03-31 22:41:00,
2013-03-31 17:46:00,56.5,31.2,29.93,NW,315,7.0,8.0,38,0.00,,SKC,0.00,VWS V14.01,2013-03-31 22:46:00,
2013-03-31 17:51:00,56.7,31.4,29.93,NNW,342,6.0,10.0,38,0.00,,SKC,0.00,VWS V14.01,2013-03-31 22:51:00,
2013-03-31 17:56:00,56.7,30.7,29.93,North,351,6.0,10.0,37,0.00,,SKC,0.00,VWS V14.01,2013-03-31 22:56:00,
2013-03-31 18:02:00,56.7,31.4,29.93,North,351,2.0,3.0,38,0.00,,SKC,0.00,VWS V14.01,2013-03-31 23:02:00,
2013-03-31 18:07:00,56.9,32.2,29.93,North,350,1.0,4.0,39,0.00,,SKC,0.00,VWS V14.01,2013-03-31 23:07:00,
2013-03-31 18:12:00,56.8,31.5,29.93,North,5,10.0,10.0,38,0.00,,SKC,0.00,VWS V14.01,2013-03-31 23:12:00,
2013-03-31 18:17:00,56.2,31.0,29.93,NNE,24,6.0,6.0,38,0.00,,SKC,0.00,VWS V14.01,2013-03-31 23:17:00,
2013-03-31 18:22:00,55.9,30.7,29.93,NNE,12,5.0,6.0,38,0.00,,SKC,0.00,VWS V14.01,2013-03-31 23:22:00,
2013-03-31 18:28:00,55.8,31.9,29.93,North,355,6.0,13.0,40,0.00,,SKC,0.00,VWS V14.01,2013-03-31 23:28:00,
2013-03-31 18:33:00,55.4,30.2,29.93,NNE,21,7.0,10.0,38,0.00,,SKC,0.00,VWS V14.01,2013-03-31 23:33:00,
2013-03-31 18:38:00,54.6,30.2,29.93,NNE,22,8.0,8.0,39,0.00,,SKC,0.00,VWS V14.01,2013-03-31 23:38:00,
2013-03-31 18:43:00,54.1,30.3,29.93,NE,36,10.0,15.0,40,0.00,,SKC,0.00,VWS V14.01,2013-03-31 23:43:00,
2013-03-31 18:48:00,53.4,29.1,29.94,NNE,21,10.0,11.0,39,0.00,,SKC,0.00,VWS V14.01,2013-03-31 23:48:00,
2013-03-31 18:53:00,52.8,29.2,29.94,ENE,57,14.0,18.0,40,0.00,,SKC,0.00,VWS V14.01,2013-03-31 23:53:00,
2013-03-31 18:58:00,52.0,28.5,29.94,NNE,23,15.0,15.0,40,0.00,,SKC,0.00,VWS V14.01,2013-03-31 23:58:00,
2013-03-31 19:03:00,51.6,28.7,29.95,North,10,11.0,14.0,41,0.00,,SKC,0.00,VWS V14.01,2013-04-01 00:03:00,
2013-03-31 19:08:00,51.4,28.5,29.96,NNE,18,5.0,12.0,41,0.00,,SKC,0.00,VWS V14.01,2013-04-01 00:08:00,
2013-03-31 19:13:00,51.3,28.4,29.96,NNE,13,12.0,15.0,41,0.00,,SKC,0.00,VWS V14.01,2013-04-01 00:13:00,
2013-03-31 19:18:00,51.1,28.8,29.96,NNE,28,12.0,12.0,42,0.00,,SKC,0.00,VWS V14.01,2013-04-01 00:18:00,
2013-03-31 19:23:00,50.9,29.8,29.96,NNE,19,10.0,14.0,44,0.00,,SKC,0.00,VWS V14.01,2013-04-01 00:23:00,
2013-03-31 19:28:00,50.8,30.2,29.97,North,351,9.0,10.0,45,0.00,,SKC,0.00,VWS V14.01,2013-04-01 00:28:00,
2013-03-31 19:33:00,50.5,31.0,29.98,North,355,8.0,12.0,47,0.00,,SKC,0.00,VWS V14.01,2013-04-01 00:33:00,
2013-03-31 19:38:00,50.3,30.9,29.97,NNE,30,17.0,17.0,47,0.00,,SKC,0.00,VWS V14.01,2013-04-01 00:38:00,
2013-03-31 19:43:00,50.0,30.6,29.98,NNE,16,10.0,12.0,47,0.00,,SKC,0.00,VWS V14.01,2013-04-01 00:43:00,
2013-03-31 19:48:00,49.6,30.2,29.97,NNE,19,13.0,14.0,47,0.00,,SKC,0.00,VWS V14.01,2013-04-01 00:48:00,
2013-03-31 19:54:00,49.2,29.9,29.98,NNE,21,10.0,14.0,47,0.00,,SKC,0.00,VWS V14.01,2013-04-01 00:54:00,
2013-03-31 19:59:00,48.9,30.1,29.98,North,360,14.0,16.0,48,0.00,,SKC,0.00,VWS V14.01,2013-04-01 00:59:00,
2013-03-31 20:04:00,48.6,30.3,29.98,North,349,8.0,12.0,49,0.00,,SKC,0.00,VWS V14.01,2013-04-01 01:04:00,
2013-03-31 20:09:00,48.4,30.1,29.98,North,355,12.0,14.0,49,0.00,,SKC,0.00,VWS V14.01,2013-04-01 01:09:00,
2013-03-31 20:14:00,48.2,30.5,29.99,North,360,6.0,12.0,50,0.00,,SKC,0.00,VWS V14.01,2013-04-01 01:14:00,
2013-03-31 20:19:00,48.1,30.8,29.99,North,349,11.0,12.0,51,0.00,,SKC,0.00,VWS V14.01,2013-04-01 01:19:00,
2013-03-31 20:24:00,47.9,30.7,30.00,North,351,13.0,20.0,51,0.00,,SKC,0.00,VWS V14.01,2013-04-01 01:24:00,
2013-03-31 20:29:00,47.8,31.0,30.01,NNW,341,18.0,20.0,52,0.00,,SKC,0.00,VWS V14.01,2013-04-01 01:29:00,
2013-03-31 20:34:00,47.7,30.5,30.01,North,5,10.0,15.0,51,0.00,,SKC,0.00,VWS V14.01,2013-04-01 01:34:00,
2013-03-31 20:39:00,47.4,30.7,30.01,NNE,20,19.0,19.0,52,0.00,,SKC,0.00,VWS V14.01,2013-04-01 01:39:00,
2013-03-31 20:44:00,46.8,31.0,30.01,NNE,32,15.0,17.0,54,0.00,,SKC,0.00,VWS V14.01,2013-04-01 01:44:00,
2013-03-31 20:49:00,46.1,30.9,30.02,NNE,27,16.0,22.0,55,0.00,,SKC,0.00,VWS V14.01,2013-04-01 01:49:00,
2013-03-31 20:55:00,45.6,30.8,30.03,NNE,28,18.0,20.0,56,0.00,,SKC,0.00,VWS V14.01,2013-04-01 01:55:00,
2013-03-31 21:00:00,44.9,31.9,30.04,North,11,17.0,21.0,60,0.00,,SKC,0.00,VWS V14.01,2013-04-01 02:00:00,
2013-03-31 21:05:00,43.9,32.5,30.06,North,355,17.0,20.0,64,0.00,,SKC,0.00,VWS V14.01,2013-04-01 02:05:00,
2013-03-31 21:10:00,43.3,33.1,30.06,North,350,13.0,21.0,67,0.00,,SKC,0.00,VWS V14.01,2013-04-01 02:10:00,
2013-03-31 21:15:00,42.7,33.2,30.06,North,355,16.0,16.0,69,0.00,,SKC,0.00,VWS V14.01,2013-04-01 02:15:00,
2013-03-31 21:20:00,42.3,33.6,30.05,North,355,12.0,19.0,71,0.00,,SKC,0.00,VWS V14.01,2013-04-01 02:20:00,
2013-03-31 21:25:00,41.7,34.0,30.06,North,360,22.0,22.0,74,0.00,,SKC,0.00,VWS V14.01,2013-04-01 02:25:00,
2013-03-31 21:30:00,41.0,34.0,30.07,North,5,23.0,23.0,76,0.00,,SKC,0.00,VWS V14.01,2013-04-01 02:30:00,
2013-03-31 21:35:00,40.4,34.4,30.08,North,9,22.0,24.0,79,0.00,,SKC,0.00,VWS V14.01,2013-04-01 02:35:00,
2013-03-31 21:40:00,39.7,34.4,30.09,NNW,331,24.0,24.0,81,0.01,,SKC,0.01,VWS V14.01,2013-04-01 02:40:00,
2013-03-31 21:46:00,38.9,33.9,30.09,North,355,13.0,14.0,82,0.01,,SKC,0.01,VWS V14.01,2013-04-01 02:46:00,
2013-03-31 21:51:00,38.4,34.0,30.10,North,9,16.0,18.0,84,0.01,,SKC,0.01,VWS V14.01,2013-04-01 02:51:00,
2013-03-31 21:56:00,37.8,33.7,30.11,NNE,24,13.0,17.0,85,0.02,,SKC,0.02,VWS V14.01,2013-04-01 02:56:00,
2013-03-31 22:01:00,37.3,33.5,30.11,North,10,17.0,18.0,86,0.03,,SKC,0.03,VWS V14.01,2013-04-01 03:01:00,
2013-03-31 22:06:00,36.7,33.2,30.12,NNW,348,12.0,16.0,87,0.03,,SKC,0.03,VWS V14.01,2013-04-01 03:06:00,
2013-03-31 22:11:00,36.6,33.4,30.11,NNW,340,10.0,19.0,88,0.04,,SKC,0.04,VWS V14.01,2013-04-01 03:11:00,
2013-03-31 22:16:00,36.5,33.3,30.12,North,350,7.0,14.0,88,0.04,,SKC,0.04,VWS V14.01,2013-04-01 03:16:00,
2013-03-31 22:21:00,36.3,33.4,30.12,NNW,339,13.0,13.0,89,0.04,,SKC,0.04,VWS V14.01,2013-04-01 03:21:00,
2013-03-31 22:26:00,36.2,33.3,30.12,North,11,10.0,12.0,89,0.04,,SKC,0.04,VWS V14.01,2013-04-01 03:26:00,
2013-03-31 22:31:00,35.9,33.0,30.12,North,350,12.0,12.0,89,0.05,,SKC,0.05,VWS V14.01,2013-04-01 03:31:00,
2013-03-31 22:36:00,35.7,32.8,30.13,North,355,12.0,15.0,89,0.05,,SKC,0.05,VWS V14.01,2013-04-01 03:36:00,
2013-03-31 22:41:00,35.5,32.6,30.13,NNE,24,9.0,12.0,89,0.04,,SKC,0.05,VWS V14.01,2013-04-01 03:41:00,
2013-03-31 22:46:00,35.2,32.6,30.13,North,360,10.0,17.0,90,0.04,,SKC,0.05,VWS V14.01,2013-04-01 03:46:00,
2013-03-31 22:51:00,35.0,32.4,30.14,North,355,14.0,16.0,90,0.04,,SKC,0.05,VWS V14.01,2013-04-01 03:51:00,
2013-03-31 22:57:00,34.8,32.2,30.14,North,355,11.0,15.0,90,0.03,,SKC,0.05,VWS V14.01,2013-04-01 03:57:00,
2013-03-31 23:00:00,34.7,32.1,30.14,NNE,20,18.0,18.0,90,0.04,,SKC,0.06,VWS V14.01,2013-04-01 04:00:00,
2013-03-31 23:01:00,34.7,32.1,30.14,NNW,346,12.0,18.0,90,0.04,,SKC,0.06,VWS V14.01,2013-04-01 04:01:00,
2013-03-31 23:02:00,34.6,32.0,30.14,NNE,21,12.0,14.0,90,0.03,,SKC,0.06,VWS V14.01,2013-04-01 04:02:00,
2013-03-31 23:07:00,34.4,31.8,30.14,North,11,5.0,14.0,90,0.03,,SKC,0.06,VWS V14.01,2013-04-01 04:07:00,
2013-03-31 23:12:00,34.2,31.6,30.14,NNE,17,11.0,11.0,90,0.02,,SKC,0.06,VWS V14.01,2013-04-01 04:12:00,
2013-03-31 23:13:00,34.2,31.6,30.14,North,355,6.0,13.0,90,0.02,,SKC,0.06,VWS V14.01,2013-04-01 04:13:00,
2013-03-31 23:18:00,34.1,31.5,30.14,North,360,11.0,11.0,90,0.02,,SKC,0.06,VWS V14.01,2013-04-01 04:18:00,
2013-03-31 23:23:00,34.1,31.8,30.14,North,360,10.0,12.0,91,0.02,,SKC,0.06,VWS V14.01,2013-04-01 04:23:00,
2013-03-31 23:28:00,34.0,31.6,30.14,NNE,15,16.0,16.0,91,0.01,,SKC,0.06,VWS V14.01,2013-04-01 04:28:00,
2013-03-31 23:33:00,33.9,31.6,30.14,North,5,5.0,11.0,91,0.01,,SKC,0.06,VWS V14.01,2013-04-01 04:33:00,
2013-03-31 23:38:00,33.9,31.6,30.14,North,350,12.0,16.0,91,0.01,,SKC,0.06,VWS V14.01,2013-04-01 04:38:00,
2013-03-31 23:43:00,33.8,31.5,30.15,NNE,14,9.0,11.0,91,0.01,,SKC,0.06,VWS V14.01,2013-04-01 04:43:00,
2013-03-31 23:49:00,33.7,31.4,30.15,NNE,19,8.0,8.0,91,0.01,,SKC,0.06,VWS V14.01,2013-04-01 04:49:00,
2013-03-31 23:54:00,33.7,31.4,30.16,NNE,14,11.0,14.0,91,0.01,,SKC,0.06,VWS V14.01,2013-04-01 04:54:00,
2013-03-31 23:59:00,33.6,31.3,30.15,North,351,11.0,11.0,91,0.01,,SKC,0.00,VWS V14.01,2013-04-01 04:59:00,